This is the latest recevied weather packets stored in our database for station/object N5ATR. If no packets are shown the sender has not sent any weather packets the latest 10 day(s).
| Time | Temp. | Humidity | Pressure | Rain* | Wind** | Luminosity | Snow |
|---|---|---|---|---|---|---|---|
| 1778098834 | 15° C | 36% | 1013.7 hPa | 0 mm | - | 547 W/m² | - |
| 1778098532 | 15.56° C | 36% | 1013.4 hPa | 0 mm | - | 894 W/m² | - |
| 1778098228 | 16.11° C | 34% | 1013.4 hPa | 0 mm | - | 944 W/m² | - |
| 1778097924 | 14.44° C | 38% | 1013.5 hPa | 0 mm | - | 676 W/m² | - |
| 1778097621 | 15.56° C | 37% | 1013.7 hPa | 0 mm | - | 299 W/m² | - |
| 1778097318 | 15° C | 37% | 1013.7 hPa | 0 mm | - | 907 W/m² | - |
| 1778097014 | 13.89° C | 38% | 1013.4 hPa | 0 mm | - | 940 W/m² | - |
| 1778096712 | 15° C | 39% | 1013.7 hPa | 0 mm | - | 754 W/m² | - |
| 1778096408 | 15.56° C | 37% | 1013.8 hPa | 0 mm | - | 286 W/m² | - |
| 1778096106 | 14.44° C | 38% | 1013.9 hPa | 0 mm | - | 986 W/m² | - |
| 1778095803 | 12.78° C | 41% | 1013.9 hPa | 0 mm | - | 269 W/m² | - |
| 1778095500 | 13.33° C | 40% | 1013.9 hPa | 0 mm | - | 220 W/m² | - |
| 1778095195 | 13.33° C | 40% | 1013.9 hPa | 0 mm | - | 1010 W/m² | - |
| 1778094893 | 13.33° C | 40% | 1013.9 hPa | 0 mm | - | 953 W/m² | - |
| 1778094589 | 13.33° C | 39% | 1013.8 hPa | 0 mm | - | 298 W/m² | - |
| 1778094286 | 13.33° C | 40% | 1014.1 hPa | 0 mm | - | 279 W/m² | - |
| 1778093982 | 12.78° C | 41% | 1014.1 hPa | 0 mm | - | 928 W/m² | - |
| 1778093680 | 12.78° C | 41% | 1014.3 hPa | 0 mm | - | 157 W/m² | - |
| 1778093377 | 12.22° C | 41% | 1014 hPa | 0 mm | - | 193 W/m² | - |
| 1778093073 | 12.78° C | 41% | 1014.1 hPa | 0 mm | - | 143 W/m² | - |
| 1778092771 | 11.67° C | 43% | 1014.3 hPa | 0 mm | - | 876 W/m² | - |
| 1778092466 | 13.33° C | 42% | 1014.1 hPa | 0 mm | - | 131 W/m² | - |
| 1778092163 | 12.78° C | 41% | 1014.3 hPa | 0 mm | - | 881 W/m² | - |
| 1778091861 | 13.33° C | 41% | 1014.1 hPa | 0 mm | - | 714 W/m² | - |
| 1778091558 | 12.78° C | 43% | 1014.3 hPa | 0 mm | - | 793 W/m² | - |
* Rain latest hour (hover to see other rain measurements)
** Current wind speed in m/s (hover to see current wind gust speed)